sensor_id;sensor_type;location;lat;lon;timestamp;P1;durP1;ratioP1;P2;durP2;ratioP2
22060;SDS011;11194;48.092;-1.382;2023-05-10T00:01:08;6.20;;;2.65;;
22060;SDS011;11194;48.092;-1.382;2023-05-10T00:03:35;6.38;;;2.30;;
22060;SDS011;11194;48.092;-1.382;2023-05-10T00:06:01;12.15;;;2.85;;
22060;SDS011;11194;48.092;-1.382;2023-05-10T00:08:27;9.63;;;3.10;;
22060;SDS011;11194;48.092;-1.382;2023-05-10T00:10:53;9.77;;;2.40;;
22060;SDS011;11194;48.092;-1.382;2023-05-10T00:13:19;9.45;;;2.80;;
22060;SDS011;11194;48.092;-1.382;2023-05-10T00:15:45;6.70;;;2.80;;
22060;SDS011;11194;48.092;-1.382;2023-05-10T00:18:11;7.63;;;2.70;;
22060;SDS011;11194;48.092;-1.382;2023-05-10T00:20:37;12.32;;;3.03;;
22060;SDS011;11194;48.092;-1.382;2023-05-10T00:23:03;8.32;;;2.65;;
22060;SDS011;11194;48.092;-1.382;2023-05-10T00:25:29;11.60;;;2.80;;
22060;SDS011;11194;48.092;-1.382;2023-05-10T00:27:55;8.65;;;2.90;;
22060;SDS011;11194;48.092;-1.382;2023-05-10T00:30:22;11.07;;;2.72;;
22060;SDS011;11194;48.092;-1.382;2023-05-10T00:32:48;8.38;;;2.88;;
22060;SDS011;11194;48.092;-1.382;2023-05-10T00:35:15;6.03;;;2.70;;
22060;SDS011;11194;48.092;-1.382;2023-05-10T00:37:41;6.65;;;3.17;;
22060;SDS011;11194;48.092;-1.382;2023-05-10T00:40:07;13.68;;;3.25;;
22060;SDS011;11194;48.092;-1.382;2023-05-10T00:42:33;10.40;;;2.85;;
22060;SDS011;11194;48.092;-1.382;2023-05-10T00:44:59;7.70;;;2.80;;
22060;SDS011;11194;48.092;-1.382;2023-05-10T00:47:25;9.32;;;2.63;;
22060;SDS011;11194;48.092;-1.382;2023-05-10T00:49:51;15.27;;;3.30;;
22060;SDS011;11194;48.092;-1.382;2023-05-10T00:52:18;9.98;;;2.70;;
22060;SDS011;11194;48.092;-1.382;2023-05-10T00:54:44;10.93;;;3.35;;
22060;SDS011;11194;48.092;-1.382;2023-05-10T00:57:10;10.93;;;3.15;;
22060;SDS011;11194;48.092;-1.382;2023-05-10T00:59:36;11.57;;;3.22;;
22060;SDS011;11194;48.092;-1.382;2023-05-10T01:02:02;10.85;;;3.38;;
22060;SDS011;11194;48.092;-1.382;2023-05-10T01:04:28;9.60;;;3.28;;
22060;SDS011;11194;48.092;-1.382;2023-05-10T01:06:55;8.63;;;3.13;;
22060;SDS011;11194;48.092;-1.382;2023-05-10T01:09:22;11.27;;;3.47;;
22060;SDS011;11194;48.092;-1.382;2023-05-10T01:11:48;10.32;;;3.33;;
22060;SDS011;11194;48.092;-1.382;2023-05-10T01:14:15;18.60;;;3.38;;
22060;SDS011;11194;48.092;-1.382;2023-05-10T01:16:43;13.55;;;3.65;;
22060;SDS011;11194;48.092;-1.382;2023-05-10T01:24:37;10.32;;;2.78;;
22060;SDS011;11194;48.092;-1.382;2023-05-10T04:02:19;10.90;;;3.55;;
22060;SDS011;11194;48.092;-1.382;2023-05-10T04:04:45;12.82;;;3.58;;
22060;SDS011;11194;48.092;-1.382;2023-05-10T04:07:11;13.55;;;3.50;;
22060;SDS011;11194;48.092;-1.382;2023-05-10T04:09:37;12.27;;;3.55;;
22060;SDS011;11194;48.092;-1.382;2023-05-10T04:12:03;12.23;;;4.28;;
22060;SDS011;11194;48.092;-1.382;2023-05-10T04:14:29;12.10;;;3.67;;
22060;SDS011;11194;48.092;-1.382;2023-05-10T04:16:55;13.13;;;3.50;;
22060;SDS011;11194;48.092;-1.382;2023-05-10T04:19:21;14.73;;;3.53;;
22060;SDS011;11194;48.092;-1.382;2023-05-10T04:21:47;13.23;;;3.50;;
22060;SDS011;11194;48.092;-1.382;2023-05-10T04:24:13;19.15;;;3.85;;
22060;SDS011;11194;48.092;-1.382;2023-05-10T04:26:39;13.20;;;3.50;;
22060;SDS011;11194;48.092;-1.382;2023-05-10T04:29:05;10.55;;;4.10;;
22060;SDS011;11194;48.092;-1.382;2023-05-10T04:31:31;10.68;;;3.90;;
22060;SDS011;11194;48.092;-1.382;2023-05-10T04:33:58;14.43;;;3.88;;
22060;SDS011;11194;48.092;-1.382;2023-05-10T04:36:24;15.30;;;3.83;;
22060;SDS011;11194;48.092;-1.382;2023-05-10T04:38:50;14.18;;;3.70;;
22060;SDS011;11194;48.092;-1.382;2023-05-10T04:41:16;14.52;;;3.80;;
22060;SDS011;11194;48.092;-1.382;2023-05-10T04:43:42;11.05;;;3.20;;
22060;SDS011;11194;48.092;-1.382;2023-05-10T04:46:08;8.93;;;3.78;;
22060;SDS011;11194;48.092;-1.382;2023-05-10T04:48:34;10.50;;;3.78;;
22060;SDS011;11194;48.092;-1.382;2023-05-10T04:51:00;15.48;;;4.50;;
22060;SDS011;11194;48.092;-1.382;2023-05-10T04:53:28;13.07;;;4.00;;
22060;SDS011;11194;48.092;-1.382;2023-05-10T04:55:54;14.35;;;3.50;;
22060;SDS011;11194;48.092;-1.382;2023-05-10T04:58:20;11.60;;;4.05;;
22060;SDS011;11194;48.092;-1.382;2023-05-10T05:00:46;14.00;;;4.13;;
22060;SDS011;11194;48.092;-1.382;2023-05-10T05:03:12;8.82;;;3.67;;
22060;SDS011;11194;48.092;-1.382;2023-05-10T05:05:38;11.65;;;3.35;;
22060;SDS011;11194;48.092;-1.382;2023-05-10T05:08:05;13.85;;;3.90;;
22060;SDS011;11194;48.092;-1.382;2023-05-10T05:10:31;16.40;;;3.97;;
22060;SDS011;11194;48.092;-1.382;2023-05-10T05:12:57;12.68;;;3.92;;
22060;SDS011;11194;48.092;-1.382;2023-05-10T05:15:23;13.60;;;3.75;;
22060;SDS011;11194;48.092;-1.382;2023-05-10T05:17:49;10.13;;;3.75;;
22060;SDS011;11194;48.092;-1.382;2023-05-10T05:20:15;9.07;;;3.97;;
22060;SDS011;11194;48.092;-1.382;2023-05-10T05:22:42;14.10;;;3.92;;
22060;SDS011;11194;48.092;-1.382;2023-05-10T05:25:08;11.68;;;3.75;;
22060;SDS011;11194;48.092;-1.382;2023-05-10T05:27:34;11.80;;;3.70;;
22060;SDS011;11194;48.092;-1.382;2023-05-10T05:30:00;12.88;;;4.07;;
22060;SDS011;11194;48.092;-1.382;2023-05-10T05:32:26;13.18;;;4.10;;
22060;SDS011;11194;48.092;-1.382;2023-05-10T05:34:52;16.95;;;4.43;;
22060;SDS011;11194;48.092;-1.382;2023-05-10T05:37:19;16.30;;;4.00;;
22060;SDS011;11194;48.092;-1.382;2023-05-10T05:39:48;19.50;;;4.07;;
22060;SDS011;11194;48.092;-1.382;2023-05-10T05:42:14;17.45;;;4.97;;
22060;SDS011;11194;48.092;-1.382;2023-05-10T05:44:42;22.10;;;4.38;;
22060;SDS011;11194;48.092;-1.382;2023-05-10T05:47:08;14.75;;;4.40;;
22060;SDS011;11194;48.092;-1.382;2023-05-10T05:49:35;17.33;;;4.50;;
22060;SDS011;11194;48.092;-1.382;2023-05-10T05:52:01;16.08;;;4.32;;
22060;SDS011;11194;48.092;-1.382;2023-05-10T05:54:28;13.13;;;3.80;;
22060;SDS011;11194;48.092;-1.382;2023-05-10T05:56:55;15.20;;;3.47;;
22060;SDS011;11194;48.092;-1.382;2023-05-10T05:59:21;9.88;;;3.90;;
22060;SDS011;11194;48.092;-1.382;2023-05-10T06:01:47;15.68;;;3.80;;
22060;SDS011;11194;48.092;-1.382;2023-05-10T06:04:13;13.10;;;3.45;;
22060;SDS011;11194;48.092;-1.382;2023-05-10T06:06:39;17.92;;;4.05;;
22060;SDS011;11194;48.092;-1.382;2023-05-10T06:09:05;11.90;;;4.13;;
22060;SDS011;11194;48.092;-1.382;2023-05-10T06:11:31;12.35;;;3.72;;
22060;SDS011;11194;48.092;-1.382;2023-05-10T06:13:58;14.73;;;4.00;;
22060;SDS011;11194;48.092;-1.382;2023-05-10T06:16:24;18.55;;;4.38;;
22060;SDS011;11194;48.092;-1.382;2023-05-10T06:18:50;14.02;;;3.17;;
22060;SDS011;11194;48.092;-1.382;2023-05-10T06:21:16;16.95;;;3.75;;
22060;SDS011;11194;48.092;-1.382;2023-05-10T06:23:42;12.60;;;3.35;;
22060;SDS011;11194;48.092;-1.382;2023-05-10T06:26:08;12.40;;;3.38;;
22060;SDS011;11194;48.092;-1.382;2023-05-10T06:28:34;8.55;;;3.25;;
22060;SDS011;11194;48.092;-1.382;2023-05-10T06:31:03;13.40;;;3.58;;
22060;SDS011;11194;48.092;-1.382;2023-05-10T06:33:29;19.45;;;4.60;;
22060;SDS011;11194;48.092;-1.382;2023-05-10T06:35:55;12.23;;;3.50;;
22060;SDS011;11194;48.092;-1.382;2023-05-10T06:38:22;14.48;;;3.33;;
22060;SDS011;11194;48.092;-1.382;2023-05-10T06:40:48;15.82;;;3.55;;
22060;SDS011;11194;48.092;-1.382;2023-05-10T06:43:14;15.48;;;3.40;;
22060;SDS011;11194;48.092;-1.382;2023-05-10T06:45:40;16.73;;;3.42;;
22060;SDS011;11194;48.092;-1.382;2023-05-10T06:48:06;14.70;;;3.72;;
22060;SDS011;11194;48.092;-1.382;2023-05-10T06:50:32;9.50;;;2.78;;
22060;SDS011;11194;48.092;-1.382;2023-05-10T06:52:59;13.57;;;3.30;;
22060;SDS011;11194;48.092;-1.382;2023-05-10T06:55:26;11.43;;;3.20;;
22060;SDS011;11194;48.092;-1.382;2023-05-10T06:57:53;15.32;;;3.55;;
22060;SDS011;11194;48.092;-1.382;2023-05-10T07:00:19;10.30;;;3.33;;
22060;SDS011;11194;48.092;-1.382;2023-05-10T07:02:45;10.13;;;3.20;;
22060;SDS011;11194;48.092;-1.382;2023-05-10T07:05:12;7.97;;;3.22;;
22060;SDS011;11194;48.092;-1.382;2023-05-10T07:07:38;8.27;;;2.65;;
22060;SDS011;11194;48.092;-1.382;2023-05-10T07:10:04;12.65;;;3.50;;
22060;SDS011;11194;48.092;-1.382;2023-05-10T07:12:30;10.98;;;3.28;;
22060;SDS011;11194;48.092;-1.382;2023-05-10T07:14:57;9.02;;;2.85;;
22060;SDS011;11194;48.092;-1.382;2023-05-10T07:17:23;7.07;;;2.60;;
22060;SDS011;11194;48.092;-1.382;2023-05-10T07:19:49;7.38;;;2.72;;
22060;SDS011;11194;48.092;-1.382;2023-05-10T07:22:15;10.32;;;3.28;;
22060;SDS011;11194;48.092;-1.382;2023-05-10T07:24:44;9.23;;;3.30;;
22060;SDS011;11194;48.092;-1.382;2023-05-10T07:27:10;9.38;;;3.22;;
22060;SDS011;11194;48.092;-1.382;2023-05-10T07:29:37;11.35;;;3.65;;
22060;SDS011;11194;48.092;-1.382;2023-05-10T07:32:03;8.50;;;3.60;;
22060;SDS011;11194;48.092;-1.382;2023-05-10T07:34:30;11.75;;;3.58;;
22060;SDS011;11194;48.092;-1.382;2023-05-10T07:36:59;11.35;;;3.45;;
22060;SDS011;11194;48.092;-1.382;2023-05-10T07:39:26;12.85;;;3.20;;
22060;SDS011;11194;48.092;-1.382;2023-05-10T07:41:52;10.85;;;3.08;;
22060;SDS011;11194;48.092;-1.382;2023-05-10T07:44:18;9.05;;;3.08;;
22060;SDS011;11194;48.092;-1.382;2023-05-10T07:46:45;11.50;;;3.70;;
22060;SDS011;11194;48.092;-1.382;2023-05-10T07:49:11;12.45;;;3.22;;
22060;SDS011;11194;48.092;-1.382;2023-05-10T07:51:37;10.65;;;3.08;;
22060;SDS011;11194;48.092;-1.382;2023-05-10T07:54:03;16.30;;;3.72;;
22060;SDS011;11194;48.092;-1.382;2023-05-10T07:56:30;14.27;;;3.33;;
22060;SDS011;11194;48.092;-1.382;2023-05-10T07:58:57;10.57;;;3.65;;
22060;SDS011;11194;48.092;-1.382;2023-05-10T08:01:23;10.02;;;4.13;;
22060;SDS011;11194;48.092;-1.382;2023-05-10T08:03:49;8.57;;;2.85;;
22060;SDS011;11194;48.092;-1.382;2023-05-10T08:06:19;10.55;;;3.50;;
22060;SDS011;11194;48.092;-1.382;2023-05-10T08:08:46;12.80;;;3.60;;
22060;SDS011;11194;48.092;-1.382;2023-05-10T08:11:17;10.50;;;3.13;;
22060;SDS011;11194;48.092;-1.382;2023-05-10T08:13:43;11.05;;;3.42;;
22060;SDS011;11194;48.092;-1.382;2023-05-10T08:16:10;14.02;;;3.95;;
22060;SDS011;11194;48.092;-1.382;2023-05-10T08:18:36;11.25;;;3.42;;
22060;SDS011;11194;48.092;-1.382;2023-05-10T08:21:02;10.07;;;3.25;;
22060;SDS011;11194;48.092;-1.382;2023-05-10T08:23:28;10.18;;;2.88;;
22060;SDS011;11194;48.092;-1.382;2023-05-10T08:25:54;14.50;;;3.60;;
22060;SDS011;11194;48.092;-1.382;2023-05-10T08:28:21;6.85;;;2.78;;
22060;SDS011;11194;48.092;-1.382;2023-05-10T08:30:47;8.38;;;3.22;;
22060;SDS011;11194;48.092;-1.382;2023-05-10T08:33:13;8.70;;;2.78;;
22060;SDS011;11194;48.092;-1.382;2023-05-10T08:35:39;7.80;;;2.67;;
22060;SDS011;11194;48.092;-1.382;2023-05-10T08:38:06;5.20;;;2.67;;
22060;SDS011;11194;48.092;-1.382;2023-05-10T08:40:32;7.30;;;2.67;;
22060;SDS011;11194;48.092;-1.382;2023-05-10T08:43:05;7.38;;;3.28;;
22060;SDS011;11194;48.092;-1.382;2023-05-10T08:45:32;6.82;;;3.10;;
22060;SDS011;11194;48.092;-1.382;2023-05-10T08:48:02;7.88;;;3.22;;
22060;SDS011;11194;48.092;-1.382;2023-05-10T08:50:33;7.95;;;3.70;;
22060;SDS011;11194;48.092;-1.382;2023-05-10T08:53:00;6.95;;;2.70;;
22060;SDS011;11194;48.092;-1.382;2023-05-10T08:55:29;6.50;;;3.10;;
22060;SDS011;11194;48.092;-1.382;2023-05-10T08:57:55;6.18;;;3.15;;
22060;SDS011;11194;48.092;-1.382;2023-05-10T09:00:21;12.77;;;3.42;;
22060;SDS011;11194;48.092;-1.382;2023-05-10T09:02:49;11.05;;;3.80;;
22060;SDS011;11194;48.092;-1.382;2023-05-10T09:05:15;8.93;;;3.70;;
22060;SDS011;11194;48.092;-1.382;2023-05-10T09:07:42;9.85;;;3.33;;
22060;SDS011;11194;48.092;-1.382;2023-05-10T09:10:09;11.88;;;3.75;;
22060;SDS011;11194;48.092;-1.382;2023-05-10T09:12:35;10.38;;;3.97;;
22060;SDS011;11194;48.092;-1.382;2023-05-10T09:15:01;9.20;;;4.07;;
22060;SDS011;11194;48.092;-1.382;2023-05-10T09:17:28;10.43;;;3.75;;
22060;SDS011;11194;48.092;-1.382;2023-05-10T09:20:02;9.85;;;3.45;;
22060;SDS011;11194;48.092;-1.382;2023-05-10T09:22:29;8.02;;;2.72;;
22060;SDS011;11194;48.092;-1.382;2023-05-10T09:27:34;7.45;;;2.75;;
22060;SDS011;11194;48.092;-1.382;2023-05-10T09:30:01;5.90;;;2.45;;
22060;SDS011;11194;48.092;-1.382;2023-05-10T09:35:15;10.65;;;2.78;;
22060;SDS011;11194;48.092;-1.382;2023-05-10T09:37:42;6.63;;;3.05;;
22060;SDS011;11194;48.092;-1.382;2023-05-10T09:40:14;7.65;;;3.00;;
22060;SDS011;11194;48.092;-1.382;2023-05-10T09:43:02;7.45;;;2.85;;
22060;SDS011;11194;48.092;-1.382;2023-05-10T09:45:30;12.32;;;3.28;;
22060;SDS011;11194;48.092;-1.382;2023-05-10T09:47:57;8.48;;;2.92;;
22060;SDS011;11194;48.092;-1.382;2023-05-10T09:50:24;9.45;;;3.42;;
22060;SDS011;11194;48.092;-1.382;2023-05-10T09:52:54;8.63;;;3.55;;
22060;SDS011;11194;48.092;-1.382;2023-05-10T09:55:23;7.25;;;4.55;;
22060;SDS011;11194;48.092;-1.382;2023-05-10T09:57:50;9.68;;;5.05;;
22060;SDS011;11194;48.092;-1.382;2023-05-10T10:00:23;10.05;;;5.80;;
22060;SDS011;11194;48.092;-1.382;2023-05-10T10:02:59;8.13;;;3.70;;
22060;SDS011;11194;48.092;-1.382;2023-05-10T10:05:27;7.40;;;2.95;;
22060;SDS011;11194;48.092;-1.382;2023-05-10T10:07:54;7.53;;;3.15;;
22060;SDS011;11194;48.092;-1.382;2023-05-10T10:10:21;4.40;;;2.60;;
22060;SDS011;11194;48.092;-1.382;2023-05-10T10:12:47;7.13;;;2.78;;
22060;SDS011;11194;48.092;-1.382;2023-05-10T10:15:13;6.57;;;2.40;;
22060;SDS011;11194;48.092;-1.382;2023-05-10T10:17:39;5.65;;;2.45;;
22060;SDS011;11194;48.092;-1.382;2023-05-10T10:20:05;7.28;;;2.50;;
22060;SDS011;11194;48.092;-1.382;2023-05-10T10:22:32;8.15;;;2.38;;
22060;SDS011;11194;48.092;-1.382;2023-05-10T10:24:58;6.18;;;2.30;;
22060;SDS011;11194;48.092;-1.382;2023-05-10T10:27:28;5.18;;;2.40;;
22060;SDS011;11194;48.092;-1.382;2023-05-10T10:30:02;4.20;;;2.53;;
22060;SDS011;11194;48.092;-1.382;2023-05-10T10:35:02;9.73;;;3.20;;
22060;SDS011;11194;48.092;-1.382;2023-05-10T10:37:44;6.63;;;2.47;;
22060;SDS011;11194;48.092;-1.382;2023-05-10T10:40:27;9.85;;;2.92;;
22060;SDS011;11194;48.092;-1.382;2023-05-10T10:42:54;5.40;;;2.35;;
22060;SDS011;11194;48.092;-1.382;2023-05-10T10:45:20;6.75;;;3.17;;
22060;SDS011;11194;48.092;-1.382;2023-05-10T10:47:46;5.25;;;2.58;;
22060;SDS011;11194;48.092;-1.382;2023-05-10T10:50:13;7.82;;;2.80;;
22060;SDS011;11194;48.092;-1.382;2023-05-10T10:52:41;5.18;;;2.53;;
22060;SDS011;11194;48.092;-1.382;2023-05-10T10:55:12;7.13;;;2.60;;
22060;SDS011;11194;48.092;-1.382;2023-05-10T11:00:18;7.38;;;2.38;;
22060;SDS011;11194;48.092;-1.382;2023-05-10T11:02:51;3.00;;;1.98;;
22060;SDS011;11194;48.092;-1.382;2023-05-10T11:10:49;4.43;;;1.65;;
22060;SDS011;11194;48.092;-1.382;2023-05-10T11:13:16;4.57;;;2.60;;
22060;SDS011;11194;48.092;-1.382;2023-05-10T11:15:52;5.00;;;1.88;;
22060;SDS011;11194;48.092;-1.382;2023-05-10T11:20:51;6.88;;;2.17;;
22060;SDS011;11194;48.092;-1.382;2023-05-10T11:23:18;5.50;;;2.53;;
22060;SDS011;11194;48.092;-1.382;2023-05-10T11:25:45;5.32;;;3.75;;
22060;SDS011;11194;48.092;-1.382;2023-05-10T11:28:11;7.93;;;4.28;;
22060;SDS011;11194;48.092;-1.382;2023-05-10T11:30:38;4.93;;;4.32;;
22060;SDS011;11194;48.092;-1.382;2023-05-10T11:33:05;5.18;;;3.67;;
22060;SDS011;11194;48.092;-1.382;2023-05-10T11:35:36;9.13;;;4.50;;
22060;SDS011;11194;48.092;-1.382;2023-05-10T11:38:04;5.38;;;3.72;;
22060;SDS011;11194;48.092;-1.382;2023-05-10T11:40:30;5.03;;;3.70;;
22060;SDS011;11194;48.092;-1.382;2023-05-10T11:42:57;5.53;;;3.58;;
22060;SDS011;11194;48.092;-1.382;2023-05-10T11:45:26;6.03;;;3.10;;
22060;SDS011;11194;48.092;-1.382;2023-05-10T11:47:54;6.30;;;3.00;;
22060;SDS011;11194;48.092;-1.382;2023-05-10T11:50:20;4.50;;;2.30;;
22060;SDS011;11194;48.092;-1.382;2023-05-10T11:52:50;5.00;;;2.28;;
22060;SDS011;11194;48.092;-1.382;2023-05-10T11:55:16;3.92;;;1.85;;
22060;SDS011;11194;48.092;-1.382;2023-05-10T11:57:51;2.83;;;1.52;;
22060;SDS011;11194;48.092;-1.382;2023-05-10T12:00:17;3.05;;;1.50;;
22060;SDS011;11194;48.092;-1.382;2023-05-10T12:02:43;4.78;;;1.90;;
22060;SDS011;11194;48.092;-1.382;2023-05-10T12:05:09;3.58;;;1.65;;
22060;SDS011;11194;48.092;-1.382;2023-05-10T12:07:36;2.17;;;1.60;;
22060;SDS011;11194;48.092;-1.382;2023-05-10T12:10:09;3.75;;;1.70;;
22060;SDS011;11194;48.092;-1.382;2023-05-10T12:12:39;3.50;;;1.75;;
22060;SDS011;11194;48.092;-1.382;2023-05-10T12:15:09;2.55;;;1.55;;
22060;SDS011;11194;48.092;-1.382;2023-05-10T12:17:36;2.10;;;1.70;;
22060;SDS011;11194;48.092;-1.382;2023-05-10T12:20:16;3.80;;;1.48;;
22060;SDS011;11194;48.092;-1.382;2023-05-10T12:22:46;3.13;;;1.30;;
22060;SDS011;11194;48.092;-1.382;2023-05-10T12:25:12;2.60;;;0.90;;
22060;SDS011;11194;48.092;-1.382;2023-05-10T12:27:38;2.67;;;1.10;;
22060;SDS011;11194;48.092;-1.382;2023-05-10T12:30:05;1.88;;;0.90;;
22060;SDS011;11194;48.092;-1.382;2023-05-10T12:32:41;3.85;;;0.93;;
22060;SDS011;11194;48.092;-1.382;2023-05-10T12:35:07;1.48;;;0.90;;
22060;SDS011;11194;48.092;-1.382;2023-05-10T12:37:34;3.97;;;1.80;;
22060;SDS011;11194;48.092;-1.382;2023-05-10T12:40:04;2.17;;;1.70;;
22060;SDS011;11194;48.092;-1.382;2023-05-10T12:42:31;3.13;;;1.30;;
22060;SDS011;11194;48.092;-1.382;2023-05-10T12:44:57;1.25;;;1.10;;
22060;SDS011;11194;48.092;-1.382;2023-05-10T12:47:23;2.40;;;1.27;;
22060;SDS011;11194;48.092;-1.382;2023-05-10T12:49:49;2.25;;;1.17;;
22060;SDS011;11194;48.092;-1.382;2023-05-10T12:52:16;2.83;;;1.00;;
22060;SDS011;11194;48.092;-1.382;2023-05-10T12:54:42;3.60;;;1.40;;
22060;SDS011;11194;48.092;-1.382;2023-05-10T12:57:08;3.92;;;1.20;;
22060;SDS011;11194;48.092;-1.382;2023-05-10T12:59:37;2.03;;;1.02;;
22060;SDS011;11194;48.092;-1.382;2023-05-10T13:02:07;3.10;;;1.35;;
22060;SDS011;11194;48.092;-1.382;2023-05-10T13:04:35;3.15;;;1.25;;
22060;SDS011;11194;48.092;-1.382;2023-05-10T13:07:14;3.70;;;1.70;;
22060;SDS011;11194;48.092;-1.382;2023-05-10T13:09:40;3.28;;;1.52;;
22060;SDS011;11194;48.092;-1.382;2023-05-10T13:12:06;3.90;;;1.30;;
22060;SDS011;11194;48.092;-1.382;2023-05-10T13:15:11;2.50;;;1.48;;
22060;SDS011;11194;48.092;-1.382;2023-05-10T13:17:37;2.92;;;1.90;;
22060;SDS011;11194;48.092;-1.382;2023-05-10T13:20:08;4.07;;;2.13;;
22060;SDS011;11194;48.092;-1.382;2023-05-10T13:22:40;2.90;;;1.98;;
22060;SDS011;11194;48.092;-1.382;2023-05-10T13:25:07;1.80;;;1.33;;
22060;SDS011;11194;48.092;-1.382;2023-05-10T13:27:33;3.55;;;1.50;;
22060;SDS011;11194;48.092;-1.382;2023-05-10T13:30:08;3.20;;;1.65;;
22060;SDS011;11194;48.092;-1.382;2023-05-10T13:32:38;4.03;;;2.08;;
22060;SDS011;11194;48.092;-1.382;2023-05-10T13:35:04;3.03;;;1.83;;
22060;SDS011;11194;48.092;-1.382;2023-05-10T13:37:31;4.15;;;1.80;;
22060;SDS011;11194;48.092;-1.382;2023-05-10T13:40:02;3.33;;;1.67;;
22060;SDS011;11194;48.092;-1.382;2023-05-10T13:42:37;3.92;;;2.33;;
22060;SDS011;11194;48.092;-1.382;2023-05-10T13:45:06;2.42;;;2.13;;
22060;SDS011;11194;48.092;-1.382;2023-05-10T13:47:37;3.60;;;2.30;;
22060;SDS011;11194;48.092;-1.382;2023-05-10T13:50:23;4.45;;;2.50;;
22060;SDS011;11194;48.092;-1.382;2023-05-10T13:53:22;3.65;;;2.65;;
22060;SDS011;11194;48.092;-1.382;2023-05-10T13:58:56;4.50;;;2.65;;
22060;SDS011;11194;48.092;-1.382;2023-05-10T14:01:23;4.15;;;2.60;;
22060;SDS011;11194;48.092;-1.382;2023-05-10T14:03:52;2.30;;;2.10;;
22060;SDS011;11194;48.092;-1.382;2023-05-10T14:06:18;2.50;;;2.30;;
22060;SDS011;11194;48.092;-1.382;2023-05-10T14:08:47;3.17;;;2.38;;
22060;SDS011;11194;48.092;-1.382;2023-05-10T14:11:13;7.25;;;2.75;;
22060;SDS011;11194;48.092;-1.382;2023-05-10T14:13:39;6.85;;;3.40;;
22060;SDS011;11194;48.092;-1.382;2023-05-10T14:16:06;4.40;;;3.85;;
22060;SDS011;11194;48.092;-1.382;2023-05-10T14:18:32;5.97;;;4.68;;
22060;SDS011;11194;48.092;-1.382;2023-05-10T14:20:58;6.43;;;4.80;;
22060;SDS011;11194;48.092;-1.382;2023-05-10T14:23:24;3.78;;;2.92;;
22060;SDS011;11194;48.092;-1.382;2023-05-10T14:25:51;4.63;;;2.35;;
22060;SDS011;11194;48.092;-1.382;2023-05-10T14:28:17;5.38;;;2.97;;
22060;SDS011;11194;48.092;-1.382;2023-05-10T14:30:45;4.65;;;3.70;;
22060;SDS011;11194;48.092;-1.382;2023-05-10T14:33:11;4.70;;;3.20;;
22060;SDS011;11194;48.092;-1.382;2023-05-10T14:35:37;5.63;;;3.25;;
22060;SDS011;11194;48.092;-1.382;2023-05-10T14:38:03;4.57;;;3.08;;
22060;SDS011;11194;48.092;-1.382;2023-05-10T14:40:30;6.75;;;2.45;;
22060;SDS011;11194;48.092;-1.382;2023-05-10T14:42:56;5.63;;;2.80;;
22060;SDS011;11194;48.092;-1.382;2023-05-10T14:45:22;4.32;;;2.70;;
22060;SDS011;11194;48.092;-1.382;2023-05-10T14:47:54;2.90;;;2.53;;
22060;SDS011;11194;48.092;-1.382;2023-05-10T14:50:33;4.20;;;2.42;;
22060;SDS011;11194;48.092;-1.382;2023-05-10T14:52:59;4.68;;;2.40;;
22060;SDS011;11194;48.092;-1.382;2023-05-10T14:55:25;3.05;;;2.58;;
22060;SDS011;11194;48.092;-1.382;2023-05-10T14:57:52;2.65;;;2.17;;
22060;SDS011;11194;48.092;-1.382;2023-05-10T15:00:38;3.65;;;2.50;;
22060;SDS011;11194;48.092;-1.382;2023-05-10T15:03:08;4.00;;;2.60;;
22060;SDS011;11194;48.092;-1.382;2023-05-10T15:05:34;4.43;;;2.25;;
22060;SDS011;11194;48.092;-1.382;2023-05-10T15:08:02;6.05;;;1.83;;
22060;SDS011;11194;48.092;-1.382;2023-05-10T15:10:29;4.45;;;1.73;;
22060;SDS011;11194;48.092;-1.382;2023-05-10T15:12:55;5.13;;;1.80;;
22060;SDS011;11194;48.092;-1.382;2023-05-10T15:15:21;6.43;;;1.63;;
22060;SDS011;11194;48.092;-1.382;2023-05-10T15:17:47;4.55;;;1.75;;
22060;SDS011;11194;48.092;-1.382;2023-05-10T15:20:13;4.20;;;1.55;;
22060;SDS011;11194;48.092;-1.382;2023-05-10T15:22:40;4.38;;;2.00;;
22060;SDS011;11194;48.092;-1.382;2023-05-10T15:25:06;5.88;;;1.67;;
22060;SDS011;11194;48.092;-1.382;2023-05-10T15:27:32;4.65;;;1.77;;
22060;SDS011;11194;48.092;-1.382;2023-05-10T15:29:58;6.72;;;2.33;;
22060;SDS011;11194;48.092;-1.382;2023-05-10T15:32:24;6.45;;;1.90;;
22060;SDS011;11194;48.092;-1.382;2023-05-10T15:34:50;4.10;;;1.90;;
22060;SDS011;11194;48.092;-1.382;2023-05-10T15:37:16;2.33;;;1.73;;
22060;SDS011;11194;48.092;-1.382;2023-05-10T15:39:43;5.60;;;2.00;;
22060;SDS011;11194;48.092;-1.382;2023-05-10T15:42:09;6.82;;;1.85;;
22060;SDS011;11194;48.092;-1.382;2023-05-10T15:44:35;4.15;;;1.75;;
22060;SDS011;11194;48.092;-1.382;2023-05-10T15:47:03;5.88;;;2.10;;
22060;SDS011;11194;48.092;-1.382;2023-05-10T15:49:32;5.05;;;2.15;;
22060;SDS011;11194;48.092;-1.382;2023-05-10T15:52:04;4.57;;;1.98;;
22060;SDS011;11194;48.092;-1.382;2023-05-10T15:54:30;5.32;;;2.30;;
22060;SDS011;11194;48.092;-1.382;2023-05-10T15:56:57;5.13;;;2.03;;
22060;SDS011;11194;48.092;-1.382;2023-05-10T15:59:31;3.53;;;1.60;;
22060;SDS011;11194;48.092;-1.382;2023-05-10T16:01:57;6.03;;;2.13;;
22060;SDS011;11194;48.092;-1.382;2023-05-10T16:04:23;2.47;;;1.58;;
22060;SDS011;11194;48.092;-1.382;2023-05-10T16:06:58;5.95;;;1.70;;
22060;SDS011;11194;48.092;-1.382;2023-05-10T16:09:24;4.43;;;1.60;;
22060;SDS011;11194;48.092;-1.382;2023-05-10T16:11:51;4.50;;;1.30;;
22060;SDS011;11194;48.092;-1.382;2023-05-10T16:14:17;5.55;;;1.60;;
22060;SDS011;11194;48.092;-1.382;2023-05-10T16:16:45;6.50;;;2.05;;
22060;SDS011;11194;48.092;-1.382;2023-05-10T16:19:17;4.57;;;1.45;;
22060;SDS011;11194;48.092;-1.382;2023-05-10T16:21:43;4.30;;;1.50;;
22060;SDS011;11194;48.092;-1.382;2023-05-10T16:24:12;4.43;;;1.75;;
22060;SDS011;11194;48.092;-1.382;2023-05-10T16:26:38;4.07;;;1.40;;
22060;SDS011;11194;48.092;-1.382;2023-05-10T16:29:06;4.75;;;1.67;;
22060;SDS011;11194;48.092;-1.382;2023-05-10T16:31:32;4.68;;;1.80;;
22060;SDS011;11194;48.092;-1.382;2023-05-10T16:33:58;4.25;;;1.73;;
22060;SDS011;11194;48.092;-1.382;2023-05-10T16:36:27;4.07;;;2.25;;
22060;SDS011;11194;48.092;-1.382;2023-05-10T16:39:00;6.65;;;2.10;;
22060;SDS011;11194;48.092;-1.382;2023-05-10T16:41:26;6.10;;;2.05;;
22060;SDS011;11194;48.092;-1.382;2023-05-10T16:43:53;7.43;;;2.63;;
22060;SDS011;11194;48.092;-1.382;2023-05-10T16:46:19;5.40;;;3.55;;
22060;SDS011;11194;48.092;-1.382;2023-05-10T16:48:45;6.28;;;3.65;;
22060;SDS011;11194;48.092;-1.382;2023-05-10T16:51:11;9.63;;;3.97;;
22060;SDS011;11194;48.092;-1.382;2023-05-10T16:53:37;6.43;;;4.18;;
22060;SDS011;11194;48.092;-1.382;2023-05-10T16:56:04;7.60;;;4.22;;
22060;SDS011;11194;48.092;-1.382;2023-05-10T16:58:33;5.60;;;3.33;;
22060;SDS011;11194;48.092;-1.382;2023-05-10T17:00:59;5.15;;;4.25;;
22060;SDS011;11194;48.092;-1.382;2023-05-10T17:03:25;9.23;;;5.65;;
22060;SDS011;11194;48.092;-1.382;2023-05-10T17:05:51;11.00;;;5.75;;
22060;SDS011;11194;48.092;-1.382;2023-05-10T17:08:18;6.10;;;4.10;;
22060;SDS011;11194;48.092;-1.382;2023-05-10T17:10:44;11.82;;;4.68;;
22060;SDS011;11194;48.092;-1.382;2023-05-10T17:13:10;8.05;;;4.50;;
22060;SDS011;11194;48.092;-1.382;2023-05-10T17:15:36;8.25;;;4.53;;
22060;SDS011;11194;48.092;-1.382;2023-05-10T17:18:02;15.55;;;4.80;;
22060;SDS011;11194;48.092;-1.382;2023-05-10T17:20:29;12.02;;;5.50;;
22060;SDS011;11194;48.092;-1.382;2023-05-10T17:22:55;6.20;;;4.80;;
22060;SDS011;11194;48.092;-1.382;2023-05-10T17:25:21;8.05;;;4.53;;
22060;SDS011;11194;48.092;-1.382;2023-05-10T17:27:47;10.00;;;4.97;;
22060;SDS011;11194;48.092;-1.382;2023-05-10T17:30:13;9.07;;;4.80;;
22060;SDS011;11194;48.092;-1.382;2023-05-10T17:32:40;11.15;;;5.43;;
22060;SDS011;11194;48.092;-1.382;2023-05-10T17:35:06;9.70;;;5.45;;